sensor_id;sensor_type;location;lat;lon;timestamp;temperature;humidity
33761;DHT22;20084;47.912;19.044;2022-07-01T00:01:44;23.50;99.90
33761;DHT22;20084;47.912;19.044;2022-07-01T00:04:11;23.50;99.90
33761;DHT22;20084;47.912;19.044;2022-07-01T00:06:37;23.40;99.90
33761;DHT22;20084;47.912;19.044;2022-07-01T00:09:03;23.30;99.90
33761;DHT22;20084;47.912;19.044;2022-07-01T00:11:32;23.30;99.90
33761;DHT22;20084;47.912;19.044;2022-07-01T00:13:58;23.20;99.90
33761;DHT22;20084;47.912;19.044;2022-07-01T00:16:23;23.20;99.90
33761;DHT22;20084;47.912;19.044;2022-07-01T00:18:49;23.20;99.90
33761;DHT22;20084;47.912;19.044;2022-07-01T00:21:15;23.10;99.90
33761;DHT22;20084;47.912;19.044;2022-07-01T00:23:41;23.00;99.90
33761;DHT22;20084;47.912;19.044;2022-07-01T00:26:07;22.90;99.90
33761;DHT22;20084;47.912;19.044;2022-07-01T00:28:33;22.90;99.90
33761;DHT22;20084;47.912;19.044;2022-07-01T00:30:58;22.90;99.90
33761;DHT22;20084;47.912;19.044;2022-07-01T00:33:24;22.80;99.90
33761;DHT22;20084;47.912;19.044;2022-07-01T00:35:49;22.70;99.90
33761;DHT22;20084;47.912;19.044;2022-07-01T00:38:15;22.50;99.90
33761;DHT22;20084;47.912;19.044;2022-07-01T00:40:41;22.50;99.90
33761;DHT22;20084;47.912;19.044;2022-07-01T00:43:06;22.40;99.90
33761;DHT22;20084;47.912;19.044;2022-07-01T00:45:32;22.30;99.90
33761;DHT22;20084;47.912;19.044;2022-07-01T00:47:58;22.40;99.90
33761;DHT22;20084;47.912;19.044;2022-07-01T00:50:24;22.30;99.90
33761;DHT22;20084;47.912;19.044;2022-07-01T00:52:49;22.30;99.90
33761;DHT22;20084;47.912;19.044;2022-07-01T00:55:15;22.20;99.90
33761;DHT22;20084;47.912;19.044;2022-07-01T00:57:42;22.20;99.90
33761;DHT22;20084;47.912;19.044;2022-07-01T01:00:15;22.20;99.90
33761;DHT22;20084;47.912;19.044;2022-07-01T01:03:02;22.20;99.90
33761;DHT22;20084;47.912;19.044;2022-07-01T01:05:28;22.20;99.90
33761;DHT22;20084;47.912;19.044;2022-07-01T01:07:53;22.20;99.90
33761;DHT22;20084;47.912;19.044;2022-07-01T01:10:21;22.20;99.90
33761;DHT22;20084;47.912;19.044;2022-07-01T01:12:49;22.20;99.90
33761;DHT22;20084;47.912;19.044;2022-07-01T01:15:19;22.20;99.90
33761;DHT22;20084;47.912;19.044;2022-07-01T01:17:45;22.20;99.90
33761;DHT22;20084;47.912;19.044;2022-07-01T01:20:19;22.10;99.90
33761;DHT22;20084;47.912;19.044;2022-07-01T01:22:45;22.00;99.90
33761;DHT22;20084;47.912;19.044;2022-07-01T01:25:12;22.00;99.90
33761;DHT22;20084;47.912;19.044;2022-07-01T01:27:38;22.00;99.90
33761;DHT22;20084;47.912;19.044;2022-07-01T01:30:05;22.00;99.90
33761;DHT22;20084;47.912;19.044;2022-07-01T01:32:31;22.00;99.90
33761;DHT22;20084;47.912;19.044;2022-07-01T01:34:56;22.00;99.90
33761;DHT22;20084;47.912;19.044;2022-07-01T01:37:22;22.00;99.90
33761;DHT22;20084;47.912;19.044;2022-07-01T01:39:48;21.90;99.90
33761;DHT22;20084;47.912;19.044;2022-07-01T01:42:13;21.90;99.90
33761;DHT22;20084;47.912;19.044;2022-07-01T01:44:39;21.90;99.90
33761;DHT22;20084;47.912;19.044;2022-07-01T01:47:05;21.90;99.90
33761;DHT22;20084;47.912;19.044;2022-07-01T01:49:31;21.80;99.90
33761;DHT22;20084;47.912;19.044;2022-07-01T01:51:58;21.80;99.90
33761;DHT22;20084;47.912;19.044;2022-07-01T01:54:25;21.80;99.90
33761;DHT22;20084;47.912;19.044;2022-07-01T01:56:51;21.80;99.90
33761;DHT22;20084;47.912;19.044;2022-07-01T01:59:16;21.80;99.90
33761;DHT22;20084;47.912;19.044;2022-07-01T02:01:42;21.70;99.90
33761;DHT22;20084;47.912;19.044;2022-07-01T02:04:07;21.70;99.90
33761;DHT22;20084;47.912;19.044;2022-07-01T02:06:33;21.60;99.90
33761;DHT22;20084;47.912;19.044;2022-07-01T02:08:59;21.60;99.90
33761;DHT22;20084;47.912;19.044;2022-07-01T02:11:24;21.60;99.90
33761;DHT22;20084;47.912;19.044;2022-07-01T02:13:50;21.60;99.90
33761;DHT22;20084;47.912;19.044;2022-07-01T02:16:16;21.50;99.90
33761;DHT22;20084;47.912;19.044;2022-07-01T02:18:41;21.50;99.90
33761;DHT22;20084;47.912;19.044;2022-07-01T02:21:07;21.40;99.90
33761;DHT22;20084;47.912;19.044;2022-07-01T02:23:33;21.40;99.90
33761;DHT22;20084;47.912;19.044;2022-07-01T02:25:58;21.30;99.90
33761;DHT22;20084;47.912;19.044;2022-07-01T02:28:24;21.20;99.90
33761;DHT22;20084;47.912;19.044;2022-07-01T02:30:50;21.30;99.90
33761;DHT22;20084;47.912;19.044;2022-07-01T02:33:15;21.30;99.90
33761;DHT22;20084;47.912;19.044;2022-07-01T02:35:41;21.40;99.90
33761;DHT22;20084;47.912;19.044;2022-07-01T02:38:08;21.40;99.90
33761;DHT22;20084;47.912;19.044;2022-07-01T02:40:34;21.50;99.90
33761;DHT22;20084;47.912;19.044;2022-07-01T02:43:03;21.40;99.90
33761;DHT22;20084;47.912;19.044;2022-07-01T02:45:30;21.40;99.90
33761;DHT22;20084;47.912;19.044;2022-07-01T02:47:55;21.40;99.90
33761;DHT22;20084;47.912;19.044;2022-07-01T02:50:21;21.30;99.90
33761;DHT22;20084;47.912;19.044;2022-07-01T02:52:46;21.20;99.90
33761;DHT22;20084;47.912;19.044;2022-07-01T02:55:14;21.20;99.90
33761;DHT22;20084;47.912;19.044;2022-07-01T02:57:40;21.20;99.90
33761;DHT22;20084;47.912;19.044;2022-07-01T03:00:09;21.10;99.90
33761;DHT22;20084;47.912;19.044;2022-07-01T03:02:35;21.00;99.90
33761;DHT22;20084;47.912;19.044;2022-07-01T03:05:02;21.00;99.90
33761;DHT22;20084;47.912;19.044;2022-07-01T03:07:28;21.00;99.90
33761;DHT22;20084;47.912;19.044;2022-07-01T03:09:53;20.90;99.90
33761;DHT22;20084;47.912;19.044;2022-07-01T03:12:19;20.90;99.90
33761;DHT22;20084;47.912;19.044;2022-07-01T03:15:26;20.80;99.90
33761;DHT22;20084;47.912;19.044;2022-07-01T03:17:46;20.80;99.90
33761;DHT22;20084;47.912;19.044;2022-07-01T03:20:15;20.80;99.90
33761;DHT22;20084;47.912;19.044;2022-07-01T03:22:42;20.80;99.90
33761;DHT22;20084;47.912;19.044;2022-07-01T03:25:09;20.90;99.90
33761;DHT22;20084;47.912;19.044;2022-07-01T03:27:35;20.90;99.90
33761;DHT22;20084;47.912;19.044;2022-07-01T03:30:02;21.00;99.90
33761;DHT22;20084;47.912;19.044;2022-07-01T03:32:28;21.10;99.90
33761;DHT22;20084;47.912;19.044;2022-07-01T03:34:54;21.10;99.90
33761;DHT22;20084;47.912;19.044;2022-07-01T03:37:21;21.10;99.90
33761;DHT22;20084;47.912;19.044;2022-07-01T03:39:48;21.20;99.90
33761;DHT22;20084;47.912;19.044;2022-07-01T03:42:14;21.30;99.90
33761;DHT22;20084;47.912;19.044;2022-07-01T03:44:40;21.30;99.90
33761;DHT22;20084;47.912;19.044;2022-07-01T03:47:06;21.50;99.90
33761;DHT22;20084;47.912;19.044;2022-07-01T03:49:35;21.60;99.90
33761;DHT22;20084;47.912;19.044;2022-07-01T03:52:02;21.70;99.90
33761;DHT22;20084;47.912;19.044;2022-07-01T03:54:28;21.80;99.90
33761;DHT22;20084;47.912;19.044;2022-07-01T03:57:05;21.80;99.90
33761;DHT22;20084;47.912;19.044;2022-07-01T03:59:33;22.00;99.90
33761;DHT22;20084;47.912;19.044;2022-07-01T04:01:59;22.10;99.90
33761;DHT22;20084;47.912;19.044;2022-07-01T04:04:26;22.20;99.90
33761;DHT22;20084;47.912;19.044;2022-07-01T04:06:57;22.30;99.90
33761;DHT22;20084;47.912;19.044;2022-07-01T04:09:23;22.50;99.90
33761;DHT22;20084;47.912;19.044;2022-07-01T04:11:50;22.60;99.90
33761;DHT22;20084;47.912;19.044;2022-07-01T04:14:16;22.60;99.90
33761;DHT22;20084;47.912;19.044;2022-07-01T04:16:43;22.60;99.90
33761;DHT22;20084;47.912;19.044;2022-07-01T04:19:09;22.60;99.90
33761;DHT22;20084;47.912;19.044;2022-07-01T04:21:35;22.60;99.90
33761;DHT22;20084;47.912;19.044;2022-07-01T04:24:20;22.70;99.90
33761;DHT22;20084;47.912;19.044;2022-07-01T04:26:48;22.70;99.90
33761;DHT22;20084;47.912;19.044;2022-07-01T04:29:14;22.70;99.90
33761;DHT22;20084;47.912;19.044;2022-07-01T04:31:40;22.70;99.90
33761;DHT22;20084;47.912;19.044;2022-07-01T04:34:07;22.80;99.90
33761;DHT22;20084;47.912;19.044;2022-07-01T04:36:33;22.80;99.90
33761;DHT22;20084;47.912;19.044;2022-07-01T04:39:00;22.80;99.90
33761;DHT22;20084;47.912;19.044;2022-07-01T04:41:25;22.90;99.90
33761;DHT22;20084;47.912;19.044;2022-07-01T04:44:10;23.00;99.90
33761;DHT22;20084;47.912;19.044;2022-07-01T04:46:36;23.20;99.90
33761;DHT22;20084;47.912;19.044;2022-07-01T04:49:02;23.20;99.90
33761;DHT22;20084;47.912;19.044;2022-07-01T04:51:28;23.30;99.90
33761;DHT22;20084;47.912;19.044;2022-07-01T04:53:54;23.40;99.90
33761;DHT22;20084;47.912;19.044;2022-07-01T04:56:20;23.40;99.90
33761;DHT22;20084;47.912;19.044;2022-07-01T04:58:46;23.50;99.90
33761;DHT22;20084;47.912;19.044;2022-07-01T05:01:11;23.60;99.90
33761;DHT22;20084;47.912;19.044;2022-07-01T05:03:37;23.70;99.90
33761;DHT22;20084;47.912;19.044;2022-07-01T05:06:04;23.70;99.90
33761;DHT22;20084;47.912;19.044;2022-07-01T05:08:30;23.80;99.90
33761;DHT22;20084;47.912;19.044;2022-07-01T05:10:56;24.00;99.90
33761;DHT22;20084;47.912;19.044;2022-07-01T05:13:21;24.10;99.90
33761;DHT22;20084;47.912;19.044;2022-07-01T05:15:47;24.20;99.90
33761;DHT22;20084;47.912;19.044;2022-07-01T05:18:13;24.20;99.90
33761;DHT22;20084;47.912;19.044;2022-07-01T05:20:57;24.30;99.90
33761;DHT22;20084;47.912;19.044;2022-07-01T05:23:41;24.40;99.90
33761;DHT22;20084;47.912;19.044;2022-07-01T05:26:06;24.50;99.90
33761;DHT22;20084;47.912;19.044;2022-07-01T05:28:32;24.60;99.90
33761;DHT22;20084;47.912;19.044;2022-07-01T05:30:58;24.80;99.90
33761;DHT22;20084;47.912;19.044;2022-07-01T05:33:24;24.90;99.90
33761;DHT22;20084;47.912;19.044;2022-07-01T05:35:52;25.10;99.90
33761;DHT22;20084;47.912;19.044;2022-07-01T05:38:18;25.20;99.90
33761;DHT22;20084;47.912;19.044;2022-07-01T05:40:43;25.30;99.90
33761;DHT22;20084;47.912;19.044;2022-07-01T05:43:09;25.40;99.90
33761;DHT22;20084;47.912;19.044;2022-07-01T05:45:35;25.50;99.90
33761;DHT22;20084;47.912;19.044;2022-07-01T05:48:00;25.60;99.90
33761;DHT22;20084;47.912;19.044;2022-07-01T05:50:26;25.80;99.90
33761;DHT22;20084;47.912;19.044;2022-07-01T05:52:52;25.90;99.90
33761;DHT22;20084;47.912;19.044;2022-07-01T05:55:17;26.00;99.90
33761;DHT22;20084;47.912;19.044;2022-07-01T05:57:43;26.10;99.90
33761;DHT22;20084;47.912;19.044;2022-07-01T06:00:09;26.20;99.90
33761;DHT22;20084;47.912;19.044;2022-07-01T06:02:35;26.30;99.90
33761;DHT22;20084;47.912;19.044;2022-07-01T06:05:01;26.40;99.90
33761;DHT22;20084;47.912;19.044;2022-07-01T06:07:28;26.50;99.90
33761;DHT22;20084;47.912;19.044;2022-07-01T06:09:55;26.60;99.90
33761;DHT22;20084;47.912;19.044;2022-07-01T06:12:20;26.70;99.90
33761;DHT22;20084;47.912;19.044;2022-07-01T06:14:46;26.90;99.90
33761;DHT22;20084;47.912;19.044;2022-07-01T06:17:11;27.00;99.90
33761;DHT22;20084;47.912;19.044;2022-07-01T06:19:39;27.10;99.90
33761;DHT22;20084;47.912;19.044;2022-07-01T06:22:05;27.20;99.90
33761;DHT22;20084;47.912;19.044;2022-07-01T06:24:31;27.30;99.90
33761;DHT22;20084;47.912;19.044;2022-07-01T06:26:56;27.40;99.90
33761;DHT22;20084;47.912;19.044;2022-07-01T06:29:22;27.50;99.90
33761;DHT22;20084;47.912;19.044;2022-07-01T06:31:48;27.60;99.10
33761;DHT22;20084;47.912;19.044;2022-07-01T06:34:14;27.70;98.30
33761;DHT22;20084;47.912;19.044;2022-07-01T06:36:39;27.70;98.40
33761;DHT22;20084;47.912;19.044;2022-07-01T06:39:05;27.80;98.70
33761;DHT22;20084;47.912;19.044;2022-07-01T06:41:31;28.00;98.10
33761;DHT22;20084;47.912;19.044;2022-07-01T06:43:58;28.00;98.00
33761;DHT22;20084;47.912;19.044;2022-07-01T06:46:25;28.10;97.70
33761;DHT22;20084;47.912;19.044;2022-07-01T06:48:51;28.10;97.00
33761;DHT22;20084;47.912;19.044;2022-07-01T06:51:16;28.20;98.10
33761;DHT22;20084;47.912;19.044;2022-07-01T06:53:43;28.30;97.40
33761;DHT22;20084;47.912;19.044;2022-07-01T06:56:10;28.40;96.30
33761;DHT22;20084;47.912;19.044;2022-07-01T06:58:36;28.40;96.40
33761;DHT22;20084;47.912;19.044;2022-07-01T07:01:03;28.50;96.10
33761;DHT22;20084;47.912;19.044;2022-07-01T07:03:29;28.60;95.80
33761;DHT22;20084;47.912;19.044;2022-07-01T07:05:55;28.70;96.60
33761;DHT22;20084;47.912;19.044;2022-07-01T07:08:21;28.80;98.10
33761;DHT22;20084;47.912;19.044;2022-07-01T07:10:47;29.00;96.60
33761;DHT22;20084;47.912;19.044;2022-07-01T07:13:13;29.00;95.10
33761;DHT22;20084;47.912;19.044;2022-07-01T07:15:38;29.10;96.90
33761;DHT22;20084;47.912;19.044;2022-07-01T07:18:07;29.10;96.70
33761;DHT22;20084;47.912;19.044;2022-07-01T07:20:33;29.20;96.10
33761;DHT22;20084;47.912;19.044;2022-07-01T07:22:59;29.30;94.90
33761;DHT22;20084;47.912;19.044;2022-07-01T07:25:25;29.30;94.70
33761;DHT22;20084;47.912;19.044;2022-07-01T07:27:50;29.40;94.50
33761;DHT22;20084;47.912;19.044;2022-07-01T07:30:17;29.40;93.80
33761;DHT22;20084;47.912;19.044;2022-07-01T07:32:43;29.40;93.30
33761;DHT22;20084;47.912;19.044;2022-07-01T07:35:09;29.40;93.10
33761;DHT22;20084;47.912;19.044;2022-07-01T07:37:35;29.50;93.70
33761;DHT22;20084;47.912;19.044;2022-07-01T07:40:03;29.60;92.70
33761;DHT22;20084;47.912;19.044;2022-07-01T07:42:31;29.70;93.40
33761;DHT22;20084;47.912;19.044;2022-07-01T07:44:58;29.80;92.80
33761;DHT22;20084;47.912;19.044;2022-07-01T07:47:23;29.90;92.00
33761;DHT22;20084;47.912;19.044;2022-07-01T07:49:49;29.90;92.80
33761;DHT22;20084;47.912;19.044;2022-07-01T07:52:15;29.90;92.40
33761;DHT22;20084;47.912;19.044;2022-07-01T07:54:41;30.00;92.30
33761;DHT22;20084;47.912;19.044;2022-07-01T07:57:07;30.00;92.80
33761;DHT22;20084;47.912;19.044;2022-07-01T07:59:33;30.10;92.70
33761;DHT22;20084;47.912;19.044;2022-07-01T08:01:59;30.20;92.40
33761;DHT22;20084;47.912;19.044;2022-07-01T08:04:25;30.30;91.80
33761;DHT22;20084;47.912;19.044;2022-07-01T08:06:51;30.40;92.00
33761;DHT22;20084;47.912;19.044;2022-07-01T08:09:16;30.40;91.60
33761;DHT22;20084;47.912;19.044;2022-07-01T08:11:42;30.50;91.30
33761;DHT22;20084;47.912;19.044;2022-07-01T08:14:08;30.60;92.20
33761;DHT22;20084;47.912;19.044;2022-07-01T08:16:33;30.60;90.70
33761;DHT22;20084;47.912;19.044;2022-07-01T08:19:00;30.50;91.30
33761;DHT22;20084;47.912;19.044;2022-07-01T08:21:27;30.50;90.80
33761;DHT22;20084;47.912;19.044;2022-07-01T08:23:52;30.50;90.00
33761;DHT22;20084;47.912;19.044;2022-07-01T08:26:18;30.60;90.20
33761;DHT22;20084;47.912;19.044;2022-07-01T08:28:44;30.60;90.70
33761;DHT22;20084;47.912;19.044;2022-07-01T08:31:10;30.70;89.30
33761;DHT22;20084;47.912;19.044;2022-07-01T08:33:35;30.70;90.00
33761;DHT22;20084;47.912;19.044;2022-07-01T08:38:28;30.70;89.70
33761;DHT22;20084;47.912;19.044;2022-07-01T08:40:53;30.80;88.30
33761;DHT22;20084;47.912;19.044;2022-07-01T08:43:19;30.80;88.40
33761;DHT22;20084;47.912;19.044;2022-07-01T08:45:45;30.90;89.30
33761;DHT22;20084;47.912;19.044;2022-07-01T08:48:10;30.90;87.90
33761;DHT22;20084;47.912;19.044;2022-07-01T08:50:40;30.90;87.80
33761;DHT22;20084;47.912;19.044;2022-07-01T08:53:08;30.90;88.00
33761;DHT22;20084;47.912;19.044;2022-07-01T08:55:34;30.90;86.20
33761;DHT22;20084;47.912;19.044;2022-07-01T08:58:20;31.00;88.40
33761;DHT22;20084;47.912;19.044;2022-07-01T09:00:46;31.10;88.50
33761;DHT22;20084;47.912;19.044;2022-07-01T09:03:12;31.10;88.90
33761;DHT22;20084;47.912;19.044;2022-07-01T09:05:37;31.10;87.30
33761;DHT22;20084;47.912;19.044;2022-07-01T09:08:05;31.10;88.50
33761;DHT22;20084;47.912;19.044;2022-07-01T09:10:32;31.10;88.90
33761;DHT22;20084;47.912;19.044;2022-07-01T09:13:08;31.00;87.00
33761;DHT22;20084;47.912;19.044;2022-07-01T09:15:35;31.00;85.80
33761;DHT22;20084;47.912;19.044;2022-07-01T09:18:12;30.90;86.50
33761;DHT22;20084;47.912;19.044;2022-07-01T09:20:40;31.00;86.70
33761;DHT22;20084;47.912;19.044;2022-07-01T09:23:15;31.10;86.90
33761;DHT22;20084;47.912;19.044;2022-07-01T09:25:44;31.20;86.80
33761;DHT22;20084;47.912;19.044;2022-07-01T09:28:11;31.20;85.70
33761;DHT22;20084;47.912;19.044;2022-07-01T09:30:39;31.20;85.60
33761;DHT22;20084;47.912;19.044;2022-07-01T09:33:17;31.10;88.60
33761;DHT22;20084;47.912;19.044;2022-07-01T09:35:44;31.10;86.70
33761;DHT22;20084;47.912;19.044;2022-07-01T09:38:13;31.30;86.70
33761;DHT22;20084;47.912;19.044;2022-07-01T09:43:19;31.50;86.20
33761;DHT22;20084;47.912;19.044;2022-07-01T09:48:23;31.80;85.50
33761;DHT22;20084;47.912;19.044;2022-07-01T09:50:49;31.90;85.70
33761;DHT22;20084;47.912;19.044;2022-07-01T09:53:15;32.00;86.20
33761;DHT22;20084;47.912;19.044;2022-07-01T09:55:41;31.90;83.20
33761;DHT22;20084;47.912;19.044;2022-07-01T09:58:07;31.70;82.10
33761;DHT22;20084;47.912;19.044;2022-07-01T10:00:35;31.60;83.60
33761;DHT22;20084;47.912;19.044;2022-07-01T10:03:04;31.50;77.70
33761;DHT22;20084;47.912;19.044;2022-07-01T10:05:39;31.50;78.40
33761;DHT22;20084;47.912;19.044;2022-07-01T10:11:18;31.70;72.50
33761;DHT22;20084;47.912;19.044;2022-07-01T10:13:50;31.80;71.40
33761;DHT22;20084;47.912;19.044;2022-07-01T10:16:17;31.80;71.90
33761;DHT22;20084;47.912;19.044;2022-07-01T10:18:43;31.90;72.70
33761;DHT22;20084;47.912;19.044;2022-07-01T10:21:09;32.10;70.90
33761;DHT22;20084;47.912;19.044;2022-07-01T10:23:50;32.20;70.60
33761;DHT22;20084;47.912;19.044;2022-07-01T10:26:18;32.30;68.70
33761;DHT22;20084;47.912;19.044;2022-07-01T10:28:45;32.30;64.50
33761;DHT22;20084;47.912;19.044;2022-07-01T10:31:18;32.30;66.40
33761;DHT22;20084;47.912;19.044;2022-07-01T10:33:49;32.40;66.80
33761;DHT22;20084;47.912;19.044;2022-07-01T10:41:32;32.40;66.20
33761;DHT22;20084;47.912;19.044;2022-07-01T10:44:01;32.40;64.80
33761;DHT22;20084;47.912;19.044;2022-07-01T10:46:46;32.30;63.10
33761;DHT22;20084;47.912;19.044;2022-07-01T10:52:12;32.30;65.20
33761;DHT22;20084;47.912;19.044;2022-07-01T11:02:27;32.70;60.70
33761;DHT22;20084;47.912;19.044;2022-07-01T11:04:54;32.70;63.40
33761;DHT22;20084;47.912;19.044;2022-07-01T11:07:24;32.70;61.00
33761;DHT22;20084;47.912;19.044;2022-07-01T11:09:49;32.70;61.40
33761;DHT22;20084;47.912;19.044;2022-07-01T11:12:15;32.80;58.50
33761;DHT22;20084;47.912;19.044;2022-07-01T11:14:44;32.90;58.70
33761;DHT22;20084;47.912;19.044;2022-07-01T11:17:10;32.90;59.30
33761;DHT22;20084;47.912;19.044;2022-07-01T11:19:36;32.90;59.50
33761;DHT22;20084;47.912;19.044;2022-07-01T11:22:02;33.00;58.80
33761;DHT22;20084;47.912;19.044;2022-07-01T11:24:28;33.00;60.80
33761;DHT22;20084;47.912;19.044;2022-07-01T11:27:06;33.10;60.80
33761;DHT22;20084;47.912;19.044;2022-07-01T11:29:32;33.10;57.70
33761;DHT22;20084;47.912;19.044;2022-07-01T11:31:58;33.10;57.70
33761;DHT22;20084;47.912;19.044;2022-07-01T11:34:27;33.20;58.80
33761;DHT22;20084;47.912;19.044;2022-07-01T11:36:53;33.20;58.50
33761;DHT22;20084;47.912;19.044;2022-07-01T11:40:05;33.20;56.00
33761;DHT22;20084;47.912;19.044;2022-07-01T11:42:32;33.20;55.90
33761;DHT22;20084;47.912;19.044;2022-07-01T11:44:58;33.20;57.30
33761;DHT22;20084;47.912;19.044;2022-07-01T11:47:25;33.30;56.30
33761;DHT22;20084;47.912;19.044;2022-07-01T11:49:53;33.40;55.60
33761;DHT22;20084;47.912;19.044;2022-07-01T11:52:20;33.50;55.20
33761;DHT22;20084;47.912;19.044;2022-07-01T11:54:48;33.50;54.80
33761;DHT22;20084;47.912;19.044;2022-07-01T11:59:42;33.40;54.40
33761;DHT22;20084;47.912;19.044;2022-07-01T12:02:10;33.50;56.50
33761;DHT22;20084;47.912;19.044;2022-07-01T12:04:37;33.60;56.10
33761;DHT22;20084;47.912;19.044;2022-07-01T12:07:03;33.60;53.90
33761;DHT22;20084;47.912;19.044;2022-07-01T12:09:29;33.60;53.40
33761;DHT22;20084;47.912;19.044;2022-07-01T12:11:55;33.50;53.40
33761;DHT22;20084;47.912;19.044;2022-07-01T12:14:29;33.50;56.20
33761;DHT22;20084;47.912;19.044;2022-07-01T12:16:58;33.60;55.40
33761;DHT22;20084;47.912;19.044;2022-07-01T12:19:28;33.70;55.30
33761;DHT22;20084;47.912;19.044;2022-07-01T12:21:58;33.60;56.30
33761;DHT22;20084;47.912;19.044;2022-07-01T12:24:27;33.60;55.40
33761;DHT22;20084;47.912;19.044;2022-07-01T12:29:26;33.70;56.20
33761;DHT22;20084;47.912;19.044;2022-07-01T12:32:05;33.80;53.80
33761;DHT22;20084;47.912;19.044;2022-07-01T12:37:25;33.80;52.20
33761;DHT22;20084;47.912;19.044;2022-07-01T12:40:38;33.80;53.70
33761;DHT22;20084;47.912;19.044;2022-07-01T12:42:43;33.80;54.70
33761;DHT22;20084;47.912;19.044;2022-07-01T12:45:23;33.90;53.80
33761;DHT22;20084;47.912;19.044;2022-07-01T12:47:51;33.80;53.60
33761;DHT22;20084;47.912;19.044;2022-07-01T12:50:27;33.80;53.00
33761;DHT22;20084;47.912;19.044;2022-07-01T12:53:10;33.90;53.60
33761;DHT22;20084;47.912;19.044;2022-07-01T12:55:41;33.90;53.00
33761;DHT22;20084;47.912;19.044;2022-07-01T12:58:12;33.90;53.90
33761;DHT22;20084;47.912;19.044;2022-07-01T13:00:39;34.00;55.00
33761;DHT22;20084;47.912;19.044;2022-07-01T13:03:05;34.00;53.10
33761;DHT22;20084;47.912;19.044;2022-07-01T13:05:33;34.10;52.60
33761;DHT22;20084;47.912;19.044;2022-07-01T13:07:59;34.20;52.20
33761;DHT22;20084;47.912;19.044;2022-07-01T13:10:25;34.20;52.90
33761;DHT22;20084;47.912;19.044;2022-07-01T13:12:51;34.20;52.80
33761;DHT22;20084;47.912;19.044;2022-07-01T13:15:18;34.20;52.00
33761;DHT22;20084;47.912;19.044;2022-07-01T13:17:45;34.20;52.40
33761;DHT22;20084;47.912;19.044;2022-07-01T13:20:12;34.30;51.20
33761;DHT22;20084;47.912;19.044;2022-07-01T13:22:38;34.30;52.20
33761;DHT22;20084;47.912;19.044;2022-07-01T13:25:05;34.40;50.80
33761;DHT22;20084;47.912;19.044;2022-07-01T13:27:31;34.40;49.70
33761;DHT22;20084;47.912;19.044;2022-07-01T13:29:57;34.40;52.50
33761;DHT22;20084;47.912;19.044;2022-07-01T13:32:23;34.40;52.70
33761;DHT22;20084;47.912;19.044;2022-07-01T13:34:49;34.40;51.40
33761;DHT22;20084;47.912;19.044;2022-07-01T13:37:15;34.40;50.80
33761;DHT22;20084;47.912;19.044;2022-07-01T13:39:41;34.40;51.90
33761;DHT22;20084;47.912;19.044;2022-07-01T13:42:07;34.40;48.90
33761;DHT22;20084;47.912;19.044;2022-07-01T13:44:33;34.40;53.60
33761;DHT22;20084;47.912;19.044;2022-07-01T13:47:00;34.40;51.30
33761;DHT22;20084;47.912;19.044;2022-07-01T13:49:25;34.20;51.80
33761;DHT22;20084;47.912;19.044;2022-07-01T13:51:51;34.30;50.70
33761;DHT22;20084;47.912;19.044;2022-07-01T13:54:17;34.20;52.00
33761;DHT22;20084;47.912;19.044;2022-07-01T13:56:42;34.10;53.50
33761;DHT22;20084;47.912;19.044;2022-07-01T13:59:11;34.00;54.10
33761;DHT22;20084;47.912;19.044;2022-07-01T14:01:36;34.00;54.50
33761;DHT22;20084;47.912;19.044;2022-07-01T14:04:02;34.00;54.10
33761;DHT22;20084;47.912;19.044;2022-07-01T14:06:28;34.10;52.00
33761;DHT22;20084;47.912;19.044;2022-07-01T14:08:54;34.10;52.10
33761;DHT22;20084;47.912;19.044;2022-07-01T14:11:20;34.10;51.80
33761;DHT22;20084;47.912;19.044;2022-07-01T14:13:46;34.20;52.50
33761;DHT22;20084;47.912;19.044;2022-07-01T14:16:12;34.20;50.80
33761;DHT22;20084;47.912;19.044;2022-07-01T14:18:37;34.20;51.30
33761;DHT22;20084;47.912;19.044;2022-07-01T14:21:04;34.30;49.70
33761;DHT22;20084;47.912;19.044;2022-07-01T14:23:33;34.30;47.70
33761;DHT22;20084;47.912;19.044;2022-07-01T14:25:59;34.40;48.10
33761;DHT22;20084;47.912;19.044;2022-07-01T14:28:25;34.40;49.60
33761;DHT22;20084;47.912;19.044;2022-07-01T14:30:51;34.30;49.70
33761;DHT22;20084;47.912;19.044;2022-07-01T14:33:19;34.30;49.00
33761;DHT22;20084;47.912;19.044;2022-07-01T14:35:44;34.30;51.30
33761;DHT22;20084;47.912;19.044;2022-07-01T14:38:10;34.30;49.30
33761;DHT22;20084;47.912;19.044;2022-07-01T14:40:37;34.30;50.60
33761;DHT22;20084;47.912;19.044;2022-07-01T14:43:03;34.30;49.90
33761;DHT22;20084;47.912;19.044;2022-07-01T14:45:29;34.40;50.30
33761;DHT22;20084;47.912;19.044;2022-07-01T14:47:55;34.40;48.50
33761;DHT22;20084;47.912;19.044;2022-07-01T14:50:20;34.40;48.90
33761;DHT22;20084;47.912;19.044;2022-07-01T14:52:47;34.40;47.40
33761;DHT22;20084;47.912;19.044;2022-07-01T14:55:13;34.40;48.20
33761;DHT22;20084;47.912;19.044;2022-07-01T14:57:39;34.30;48.50
33761;DHT22;20084;47.912;19.044;2022-07-01T15:00:05;34.40;47.10
33761;DHT22;20084;47.912;19.044;2022-07-01T15:02:31;34.30;47.60
33761;DHT22;20084;47.912;19.044;2022-07-01T15:04:57;34.40;48.50
33761;DHT22;20084;47.912;19.044;2022-07-01T15:07:23;34.40;48.20
33761;DHT22;20084;47.912;19.044;2022-07-01T15:09:50;34.40;47.60
33761;DHT22;20084;47.912;19.044;2022-07-01T15:12:17;34.30;47.50
33761;DHT22;20084;47.912;19.044;2022-07-01T15:14:44;34.40;47.90
33761;DHT22;20084;47.912;19.044;2022-07-01T15:17:10;34.30;47.30
33761;DHT22;20084;47.912;19.044;2022-07-01T15:19:36;34.30;48.50
33761;DHT22;20084;47.912;19.044;2022-07-01T15:22:04;34.30;47.90
33761;DHT22;20084;47.912;19.044;2022-07-01T15:24:30;34.30;48.50
33761;DHT22;20084;47.912;19.044;2022-07-01T15:26:56;34.20;49.50
33761;DHT22;20084;47.912;19.044;2022-07-01T15:29:22;34.20;49.30
33761;DHT22;20084;47.912;19.044;2022-07-01T15:31:48;34.20;49.90
33761;DHT22;20084;47.912;19.044;2022-07-01T15:34:14;34.30;50.40
33761;DHT22;20084;47.912;19.044;2022-07-01T15:36:42;34.20;51.20
33761;DHT22;20084;47.912;19.044;2022-07-01T15:39:07;34.20;48.30
33761;DHT22;20084;47.912;19.044;2022-07-01T15:41:33;34.20;48.40
33761;DHT22;20084;47.912;19.044;2022-07-01T15:44:00;34.20;49.00
33761;DHT22;20084;47.912;19.044;2022-07-01T15:46:25;34.10;49.20
33761;DHT22;20084;47.912;19.044;2022-07-01T15:48:51;34.10;49.50
33761;DHT22;20084;47.912;19.044;2022-07-01T15:51:17;34.10;48.70